Time;durP1;ratioP1;P1;durP2;ratioP2;P2;SDS_P1;SDS_P2;PMS_P1;PMS_P2;Temp;Humidity;BMP_temperature;BMP_pressure;BME280_temperature;BME280_humidity;BME280_pressure;Samples;Min_cycle;Max_cycle;Signal;HPM_P1;HPM_P2
2022/08/06 00:02:39;;;;;;;3.08;2.08;;;28.90;96.70;;;;;;4982804;28;20743;-86
2022/08/06 00:05:10;;;;;;;5.05;1.98;;;28.90;96.70;;;;;;4987312;28;20066;-84
2022/08/06 00:07:56;;;;;;;2.75;1.65;;;28.90;96.70;;;;;;4984406;28;20054;-84
2022/08/06 00:10:29;;;;;;;3.88;1.90;;;28.90;96.70;;;;;;4986740;28;20604;-83
2022/08/06 00:12:58;;;;;;;4.00;1.77;;;28.90;96.70;;;;;;4987958;28;20050;-84
2022/08/06 00:15:30;;;;;;;3.70;1.80;;;28.80;96.70;;;;;;4986483;28;20047;-84
2022/08/06 00:18:19;;;;;;;3.92;1.92;;;28.90;96.70;;;;;;4983995;28;20042;-86
2022/08/06 00:20:47;;;;;;;3.55;1.95;;;28.90;96.70;;;;;;4986776;28;20045;-85
2022/08/06 00:23:18;;;;;;;2.75;1.83;;;28.90;96.70;;;;;;4985031;28;20065;-83
2022/08/06 00:25:54;;;;;;;4.43;2.13;;;28.80;96.70;;;;;;4989476;28;20057;-84
2022/08/06 00:28:25;;;;;;;4.15;1.63;;;28.70;96.70;;;;;;4986927;28;20072;-83
2022/08/06 00:31:03;;;;;;;2.20;1.40;;;28.60;96.70;;;;;;4988426;28;20089;-83
2022/08/06 00:33:39;;;;;;;1.73;1.50;;;28.60;96.70;;;;;;4989809;28;20491;-83
2022/08/06 00:36:18;;;;;;;4.00;2.00;;;28.50;96.70;;;;;;4971755;28;20050;-83
2022/08/06 00:38:52;;;;;;;2.97;1.90;;;28.50;96.70;;;;;;4989241;28;20050;-83
2022/08/06 00:41:21;;;;;;;4.90;1.65;;;28.50;96.70;;;;;;4990377;28;20137;-83
2022/08/06 00:43:56;;;;;;;2.58;1.45;;;28.40;96.70;;;;;;4998210;28;20153;-83
2022/08/06 00:46:26;;;;;;;3.15;1.50;;;28.30;96.70;;;;;;4977407;28;20059;-84
2022/08/06 00:48:56;;;;;;;1.90;1.40;;;28.40;96.70;;;;;;4971443;28;20073;-86
2022/08/06 00:51:27;;;;;;;3.20;1.77;;;28.40;96.70;;;;;;4948789;28;20044;-83
2022/08/06 00:54:16;;;;;;;6.82;1.67;;;28.50;96.70;;;;;;4948156;28;20432;-85
2022/08/06 00:56:44;;;;;;;3.83;1.60;;;28.50;96.70;;;;;;4967284;28;20126;-84
2022/08/06 00:59:14;;;;;;;3.20;1.50;;;28.50;96.70;;;;;;4953205;29;20109;-84
2022/08/06 01:01:44;;;;;;;4.80;1.45;;;28.50;96.70;;;;;;4952461;28;20130;-84
2022/08/06 01:04:18;;;;;;;2.20;1.50;;;28.40;96.70;;;;;;4960587;28;20126;-84
2022/08/06 01:06:47;;;;;;;4.60;1.70;;;28.40;96.70;;;;;;4961995;28;20047;-84
2022/08/06 01:09:26;;;;;;;3.25;1.60;;;28.40;96.70;;;;;;4952738;28;20137;-83
2022/08/06 01:11:59;;;;;;;3.25;1.60;;;28.40;96.70;;;;;;4953380;28;20043;-84
2022/08/06 01:14:30;;;;;;;4.13;1.45;;;28.40;96.70;;;;;;4950953;28;20047;-84
2022/08/06 01:17:16;;;;;;;3.72;1.60;;;28.40;96.70;;;;;;4955660;28;20054;-84
2022/08/06 01:19:58;;;;;;;2.63;1.50;;;28.30;96.70;;;;;;4960480;28;20079;-84
2022/08/06 01:23:03;;;;;;;4.88;1.40;;;28.30;96.70;;;;;;4967627;28;20058;-84
2022/08/06 01:25:59;;;;;;;4.25;1.80;;;28.20;96.70;;;;;;4967335;28;20070;-83
2022/08/06 01:28:34;;;;;;;3.47;1.38;;;28.20;96.70;;;;;;4953154;28;20120;-84
2022/08/06 01:31:09;;;;;;;4.72;1.92;;;28.10;96.70;;;;;;4966790;28;20055;-83
2022/08/06 01:33:42;;;;;;;6.65;2.20;;;28.00;96.70;;;;;;4952506;28;20067;-84
2022/08/06 01:36:20;;;;;;;6.75;2.05;;;27.80;96.70;;;;;;4951894;28;20043;-84
2022/08/06 01:38:58;;;;;;;2.30;1.60;;;27.80;96.70;;;;;;4965882;28;20047;-84
2022/08/06 01:41:38;;;;;;;4.25;1.90;;;28.00;96.70;;;;;;4943058;28;20600;-84
2022/08/06 01:44:33;;;;;;;5.60;1.95;;;27.90;96.70;;;;;;4952145;28;20107;-84
2022/08/06 01:47:05;;;;;;;4.13;1.92;;;27.80;96.70;;;;;;4972876;28;20057;-84
2022/08/06 01:49:49;;;;;;;5.18;1.80;;;27.90;96.70;;;;;;4982796;28;20050;-84
2022/08/06 01:52:36;;;;;;;3.65;1.80;;;27.90;96.70;;;;;;4982525;28;20047;-84
2022/08/06 01:55:09;;;;;;;3.85;1.75;;;27.80;96.70;;;;;;4982619;28;20055;-84
2022/08/06 01:57:43;;;;;;;3.30;1.60;;;27.70;96.70;;;;;;4988233;28;20133;-84
2022/08/06 02:00:37;;;;;;;4.78;1.77;;;27.60;96.70;;;;;;4989814;28;20042;-85
2022/08/06 02:03:10;;;;;;;3.10;1.58;;;27.70;96.70;;;;;;4988920;28;20048;-85
2022/08/06 02:05:51;;;;;;;3.60;1.35;;;27.70;96.70;;;;;;4989056;28;20551;-86
2022/08/06 02:08:24;;;;;;;3.78;1.58;;;27.70;96.70;;;;;;4971665;28;20496;-86
2022/08/06 02:11:05;;;;;;;4.28;1.70;;;27.60;96.70;;;;;;4981271;28;20047;-86
2022/08/06 02:13:57;;;;;;;4.13;1.50;;;27.60;96.70;;;;;;4986197;28;20045;-86
2022/08/06 02:16:30;;;;;;;2.60;1.20;;;27.50;96.70;;;;;;4989035;28;20578;-86
2022/08/06 02:19:01;;;;;;;2.30;1.40;;;27.50;96.70;;;;;;4988715;28;20132;-86
2022/08/06 02:21:40;;;;;;;2.75;1.30;;;27.50;96.70;;;;;;4988871;28;20042;-84
2022/08/06 02:24:11;;;;;;;3.40;1.50;;;27.50;96.70;;;;;;4988758;28;20073;-85
2022/08/06 02:26:43;;;;;;;4.85;1.45;;;27.50;96.70;;;;;;4987772;28;20214;-85
2022/08/06 02:29:16;;;;;;;4.05;1.50;;;27.50;96.70;;;;;;4989551;28;20089;-84
2022/08/06 02:31:51;;;;;;;4.03;1.52;;;27.60;96.70;;;;;;4972326;28;20046;-84
2022/08/06 02:34:20;;;;;;;2.90;1.42;;;27.50;96.70;;;;;;4987948;28;20061;-85
2022/08/06 02:37:04;;;;;;;2.38;1.38;;;27.50;96.70;;;;;;4985167;28;20038;-84
2022/08/06 02:39:40;;;;;;;2.47;1.50;;;27.40;96.70;;;;;;4981492;28;20145;-83
2022/08/06 02:42:24;;;;;;;2.13;1.20;;;27.30;96.70;;;;;;4988229;28;20051;-85
2022/08/06 02:45:02;;;;;;;3.42;1.35;;;27.20;96.70;;;;;;4965341;28;20117;-85
2022/08/06 02:47:38;;;;;;;3.00;1.40;;;27.20;96.70;;;;;;4944034;28;20055;-85
2022/08/06 02:50:32;;;;;;;2.42;1.40;;;27.20;96.70;;;;;;4950557;28;20047;-84
2022/08/06 02:53:07;;;;;;;2.72;1.52;;;27.10;96.70;;;;;;4965112;28;20126;-84
2022/08/06 02:55:57;;;;;;;4.47;1.50;;;27.10;96.70;;;;;;4962242;28;20054;-89
2022/08/06 02:58:33;;;;;;;3.97;1.70;;;27.10;96.70;;;;;;4963792;28;20059;-88
2022/08/06 03:01:11;;;;;;;4.53;1.60;;;27.10;96.70;;;;;;4956051;28;20057;-90
2022/08/06 03:03:54;;;;;;;3.05;1.42;;;27.10;96.70;;;;;;4946465;29;20047;-89
2022/08/06 03:06:29;;;;;;;3.42;1.50;;;27.10;96.70;;;;;;4962820;28;20048;-91
2022/08/06 03:09:00;;;;;;;2.88;1.40;;;27.20;96.70;;;;;;4942841;29;20047;-91
2022/08/06 03:11:33;;;;;;;2.78;1.35;;;27.40;96.70;;;;;;4961540;28;20047;-91
2022/08/06 03:14:07;;;;;;;2.53;1.30;;;27.50;96.70;;;;;;4941411;29;20132;-90
2022/08/06 03:16:57;;;;;;;2.53;1.58;;;27.40;96.70;;;;;;4956862;28;20081;-89
2022/08/06 03:19:29;;;;;;;4.00;1.65;;;27.20;96.70;;;;;;4965991;28;20074;-88
2022/08/06 03:22:21;;;;;;;4.88;1.70;;;27.10;96.70;;;;;;4964079;28;20528;-90
2022/08/06 03:25:12;;;;;;;4.88;1.75;;;27.00;96.70;;;;;;4944049;29;20106;-89
2022/08/06 03:27:44;;;;;;;1.90;1.60;;;27.00;96.70;;;;;;4961615;28;20090;-90
2022/08/06 03:30:14;;;;;;;2.10;1.88;;;27.10;96.70;;;;;;4965867;28;20528;-89
2022/08/06 03:33:03;;;;;;;3.92;1.73;;;27.20;96.70;;;;;;4956575;28;20090;-90
2022/08/06 03:35:55;;;;;;;3.60;2.00;;;27.20;96.70;;;;;;4951869;28;20132;-90
2022/08/06 03:38:25;;;;;;;2.20;1.30;;;27.20;96.70;;;;;;4964375;28;20058;-89
2022/08/06 03:40:58;;;;;;;3.33;1.52;;;27.30;96.70;;;;;;4964943;28;20505;-90
2022/08/06 03:43:28;;;;;;;4.57;1.65;;;27.20;96.70;;;;;;4945761;28;20044;-90
2022/08/06 03:46:23;;;;;;;5.18;1.90;;;27.10;96.70;;;;;;4952203;28;20054;-89
2022/08/06 03:48:56;;;;;;;2.38;1.60;;;27.00;96.70;;;;;;4959424;28;20051;-84
2022/08/06 03:51:29;;;;;;;5.10;1.80;;;26.90;96.70;;;;;;4967535;28;20070;-85
2022/08/06 03:54:24;;;;;;;1.73;1.52;;;26.90;96.70;;;;;;4967377;28;20125;-84
2022/08/06 03:57:11;;;;;;;2.90;1.52;;;26.90;96.70;;;;;;4981338;28;20559;-85
2022/08/06 03:59:44;;;;;;;2.75;1.40;;;27.00;96.70;;;;;;4968905;28;20055;-90
2022/08/06 04:02:31;;;;;;;3.85;1.60;;;26.90;96.70;;;;;;4975581;28;20051;-91
2022/08/06 04:05:14;;;;;;;4.70;1.77;;;26.90;96.70;;;;;;4966189;28;20058;-84
2022/08/06 04:07:46;;;;;;;3.53;1.73;;;26.90;96.70;;;;;;4953597;28;20067;-84
2022/08/06 04:10:25;;;;;;;3.33;1.60;;;26.80;96.70;;;;;;4982521;28;20061;-85
2022/08/06 04:13:04;;;;;;;3.78;1.67;;;26.70;96.70;;;;;;4965417;28;20129;-85
2022/08/06 04:15:54;;;;;;;6.05;1.90;;;26.70;96.70;;;;;;4981373;28;20058;-84
2022/08/06 04:18:32;;;;;;;2.35;1.50;;;26.60;96.70;;;;;;4967140;28;21169;-84
2022/08/06 04:21:14;;;;;;;4.28;1.70;;;26.70;96.70;;;;;;4982536;28;20047;-85
2022/08/06 04:23:51;;;;;;;2.88;1.50;;;26.70;96.70;;;;;;4964499;28;20053;-85
2022/08/06 04:26:23;;;;;;;4.03;1.73;;;26.70;96.70;;;;;;4975187;28;20631;-85
2022/08/06 04:28:55;;;;;;;2.78;1.50;;;26.70;96.70;;;;;;4962752;28;20054;-90
2022/08/06 04:31:27;;;;;;;3.08;1.70;;;26.60;96.70;;;;;;4981141;28;20047;-85
2022/08/06 04:34:22;;;;;;;4.30;1.58;;;26.70;96.70;;;;;;4982264;28;20098;-84
2022/08/06 04:36:55;;;;;;;3.67;2.17;;;26.60;96.70;;;;;;4966607;28;20150;-85
2022/08/06 04:39:26;;;;;;;3.85;1.98;;;26.60;96.70;;;;;;4981108;28;20093;-84
2022/08/06 04:42:15;;;;;;;3.75;2.50;;;26.70;96.70;;;;;;4962540;28;20613;-85
2022/08/06 04:44:45;;;;;;;4.32;2.08;;;26.80;96.70;;;;;;4980000;28;20168;-84
2022/08/06 04:47:31;;;;;;;3.70;2.45;;;26.80;96.70;;;;;;4960476;28;20055;-84
2022/08/06 04:50:14;;;;;;;2.83;1.92;;;26.90;96.70;;;;;;4957655;28;20126;-90
2022/08/06 04:52:49;;;;;;;4.32;2.10;;;26.90;96.70;;;;;;4972567;28;20574;-90
2022/08/06 04:55:21;;;;;;;4.05;2.33;;;27.00;96.70;;;;;;4970161;28;20051;-90
2022/08/06 04:58:00;;;;;;;3.08;1.83;;;27.00;96.70;;;;;;4960264;28;20768;-91
2022/08/06 05:00:30;;;;;;;2.60;1.85;;;26.90;96.70;;;;;;4954061;28;20055;-90
2022/08/06 05:03:18;;;;;;;5.10;1.92;;;27.00;96.70;;;;;;4959930;28;20133;-90
2022/08/06 05:06:15;;;;;;;4.47;1.98;;;26.90;96.70;;;;;;4960294;28;20127;-81
2022/08/06 05:08:46;;;;;;;4.20;2.03;;;26.80;96.70;;;;;;4964963;28;20409;-80
2022/08/06 05:11:25;;;;;;;6.32;2.20;;;26.90;96.70;;;;;;4946909;28;20054;-82
2022/08/06 05:13:57;;;;;;;3.47;2.50;;;27.00;96.70;;;;;;4945813;28;20047;-82
2022/08/06 05:16:27;;;;;;;4.95;2.70;;;27.10;96.70;;;;;;4956984;28;20054;-87
2022/08/06 05:19:00;;;;;;;5.13;2.95;;;27.10;96.70;;;;;;4944276;28;20078;-80
2022/08/06 05:21:50;;;;;;;5.22;2.55;;;27.10;96.70;;;;;;4951373;28;20051;-79
2022/08/06 05:24:40;;;;;;;5.72;3.13;;;27.20;96.70;;;;;;4943542;28;20106;-84
2022/08/06 05:27:30;;;;;;;5.93;3.40;;;27.10;96.70;;;;;;4955647;28;20059;-84
2022/08/06 05:30:18;;;;;;;4.28;2.80;;;27.20;96.70;;;;;;4956919;28;20132;-84
2022/08/06 05:32:48;;;;;;;2.70;2.50;;;27.30;96.70;;;;;;4968471;28;20039;-86
2022/08/06 05:35:23;;;;;;;;;;;27.40;96.70;;;;;;4943844;28;21135;-89
2022/08/06 05:38:11;;;;;;;6.68;3.97;;;27.40;96.70;;;;;;4970591;28;19954;-87
2022/08/06 05:40:47;;;;;;;8.20;4.85;;;27.50;96.70;;;;;;4965490;28;20054;-92
2022/08/06 05:43:26;;;;;;;9.32;5.72;;;27.50;96.70;;;;;;4964810;28;20055;-88
2022/08/06 05:46:17;;;;;;;6.47;4.80;;;27.50;96.70;;;;;;4977936;28;20076;-88
2022/08/06 05:49:01;;;;;;;6.53;4.53;;;27.40;96.70;;;;;;4985654;28;20074;-86
2022/08/06 05:51:57;;;;;;;7.60;4.68;;;27.40;96.70;;;;;;4980035;28;20070;-88
2022/08/06 05:54:46;;;;;;;8.73;4.68;;;27.50;96.70;;;;;;4983763;28;20137;-88
2022/08/06 05:57:21;;;;;;;7.30;4.53;;;27.20;96.70;;;;;;4985947;28;20050;-88
2022/08/06 06:00:14;;;;;;;10.57;4.95;;;27.30;96.70;;;;;;4985688;28;20047;-85
2022/08/06 06:03:06;;;;;;;7.05;4.70;;;27.50;96.70;;;;;;4981996;28;20046;-87
2022/08/06 06:05:36;;;;;;;6.82;4.10;;;27.50;96.70;;;;;;4970057;28;20051;-89
2022/08/06 06:08:25;;;;;;;7.10;4.40;;;27.50;96.70;;;;;;4976346;28;20121;-89
2022/08/06 06:11:05;;;;;;;6.15;5.53;;;27.50;96.70;;;;;;4982544;28;20078;-88
2022/08/06 06:13:36;;;;;;;6.57;4.63;;;27.50;96.70;;;;;;4983176;28;20058;-87
2022/08/06 06:16:29;;;;;;;7.30;4.60;;;27.60;96.70;;;;;;4969512;28;20098;-90
2022/08/06 06:19:14;;;;;;;6.35;5.15;;;27.70;96.70;;;;;;4985569;28;20257;-90
2022/08/06 06:21:51;;;;;;;11.23;5.53;;;27.90;96.70;;;;;;4961176;28;20043;-80
2022/08/06 06:24:26;;;;;;;7.07;4.85;;;27.80;96.70;;;;;;4969782;28;20077;-87
2022/08/06 06:27:01;;;;;;;9.70;5.45;;;27.80;96.70;;;;;;4967389;28;20070;-82
2022/08/06 06:29:55;;;;;;;8.60;4.93;;;27.70;96.70;;;;;;4984781;28;20047;-79
2022/08/06 06:32:46;;;;;;;7.95;5.05;;;27.60;96.70;;;;;;4965879;28;20047;-86
2022/08/06 06:35:29;;;;;;;7.95;5.57;;;27.70;96.70;;;;;;4969760;28;20134;-88
2022/08/06 06:38:18;;;;;;;8.05;4.95;;;27.80;96.70;;;;;;4969271;28;20528;-82
2022/08/06 06:40:59;;;;;;;9.50;5.40;;;27.80;96.70;;;;;;4964727;28;20524;-81
2022/08/06 06:43:52;;;;;;;6.82;5.25;;;28.00;96.70;;;;;;4965814;28;20046;-82
2022/08/06 06:46:25;;;;;;;6.50;5.32;;;28.10;96.70;;;;;;4988357;28;20051;-82
2022/08/06 06:49:15;;;;;;;8.10;5.75;;;28.20;96.70;;;;;;4983863;28;20137;-88
2022/08/06 06:52:09;;;;;;;8.80;5.22;;;28.30;96.70;;;;;;4987720;28;20528;-83
2022/08/06 06:54:42;;;;;;;7.28;5.30;;;28.30;96.70;;;;;;4984870;28;20052;-88
2022/08/06 06:57:20;;;;;;;6.85;5.03;;;28.30;96.70;;;;;;4972199;28;20074;-89
2022/08/06 06:59:53;;;;;;;7.18;5.35;;;28.30;96.70;;;;;;4991080;28;20049;-88
2022/08/06 07:02:44;;;;;;;7.00;5.30;;;28.20;96.70;;;;;;4971850;28;20077;-85
2022/08/06 07:05:16;;;;;;;5.38;4.88;;;28.40;96.70;;;;;;4985102;28;20054;-86
2022/08/06 07:08:06;;;;;;;7.35;4.88;;;28.40;96.70;;;;;;4987540;28;20074;-83
2022/08/06 07:10:39;;;;;;;8.63;5.10;;;28.40;96.70;;;;;;4987726;28;20050;-85
2022/08/06 07:13:10;;;;;;;7.47;4.57;;;28.50;96.70;;;;;;4985449;28;20046;-82
2022/08/06 07:15:43;;;;;;;5.43;4.90;;;28.60;96.70;;;;;;4974451;28;20634;-84
2022/08/06 07:18:25;;;;;;;7.05;4.20;;;28.70;96.70;;;;;;4986616;28;20039;-82
2022/08/06 07:21:05;;;;;;;6.43;4.22;;;28.80;96.70;;;;;;4985366;28;20138;-79
2022/08/06 07:23:36;;;;;;;5.15;4.13;;;28.80;96.70;;;;;;4983792;28;20177;-79
2022/08/06 07:26:25;;;;;;;5.90;4.40;;;28.80;96.70;;;;;;4982695;28;20042;-78
2022/08/06 07:28:55;;;;;;;7.10;4.55;;;28.80;96.70;;;;;;4984807;28;20046;-77
2022/08/06 07:31:32;;;;;;;6.60;4.05;;;28.80;96.70;;;;;;4984282;28;20038;-78
2022/08/06 07:34:04;;;;;;;4.82;4.30;;;28.80;96.70;;;;;;4965948;28;20073;-79
2022/08/06 07:36:42;;;;;;;8.30;4.22;;;29.00;96.70;;;;;;4980416;28;20046;-79
2022/08/06 07:39:26;;;;;;;6.13;4.10;;;29.10;96.70;;;;;;4970147;28;20064;-84
2022/08/06 07:42:01;;;;;;;6.80;4.50;;;29.00;96.70;;;;;;4985758;28;20046;-87
2022/08/06 07:44:43;;;;;;;5.57;4.38;;;29.10;96.70;;;;;;4986226;28;20066;-86
2022/08/06 07:47:27;;;;;;;8.93;4.47;;;29.10;96.70;;;;;;4971605;28;20125;-86
2022/08/06 07:50:18;;;;;;;9.38;3.92;;;29.10;96.70;;;;;;4984658;28;20050;-85
2022/08/06 07:52:55;;;;;;;6.18;4.10;;;29.20;96.70;;;;;;4967172;28;20065;-84
2022/08/06 07:55:26;;;;;;;5.05;3.72;;;29.30;96.70;;;;;;4987455;28;20061;-85
2022/08/06 07:58:07;;;;;;;7.30;4.35;;;29.40;96.70;;;;;;4985702;28;20093;-87
2022/08/06 08:00:37;;;;;;;6.53;4.95;;;29.50;96.70;;;;;;4987162;28;20077;-87
2022/08/06 08:06:18;;;;;;;4.43;3.97;;;29.50;96.70;;;;;;5001970;28;20416;-92
2022/08/06 08:08:53;;;;;;;4.22;3.38;;;29.50;96.70;;;;;;4991867;28;20061;-93
2022/08/06 08:11:24;;;;;;;15.30;4.07;;;29.60;96.70;;;;;;4971928;28;20263;-82
2022/08/06 08:14:18;;;;;;;8.02;3.33;;;29.60;96.70;;;;;;4980958;28;20074;-80
2022/08/06 08:16:49;;;;;;;7.95;3.72;;;29.70;96.70;;;;;;4986482;28;20061;-89
2022/08/06 08:19:23;;;;;;;6.18;3.00;;;29.80;96.70;;;;;;4984643;28;20042;-85
2022/08/06 08:21:52;;;;;;;5.18;2.95;;;29.80;96.70;;;;;;4986437;28;20066;-88
2022/08/06 08:24:21;;;;;;;4.93;3.45;;;29.80;96.70;;;;;;4986967;28;20595;-88
2022/08/06 08:26:50;;;;;;;8.00;3.38;;;29.90;96.70;;;;;;4985053;28;20046;-92
2022/08/06 08:29:39;;;;;;;6.32;3.22;;;29.90;96.70;;;;;;4987527;28;20534;-90
2022/08/06 08:32:19;;;;;;;6.30;3.60;;;29.90;96.70;;;;;;4980974;28;20045;-82
2022/08/06 08:34:47;;;;;;;12.60;3.90;;;29.90;96.70;;;;;;4986423;28;20074;-88
2022/08/06 08:37:20;;;;;;;5.88;3.40;;;30.00;96.70;;;;;;4986970;28;20093;-89
2022/08/06 08:39:49;;;;;;;5.55;3.20;;;30.10;96.70;;;;;;4972928;28;20303;-85
2022/08/06 08:42:31;;;;;;;6.05;3.42;;;30.20;96.70;;;;;;4980952;28;20074;-82
2022/08/06 08:45:04;;;;;;;5.93;2.83;;;30.30;96.70;;;;;;4964704;28;20097;-80
2022/08/06 08:47:45;;;;;;;4.22;3.30;;;30.30;96.70;;;;;;4965759;28;20058;-80
2022/08/06 08:50:28;;;;;;;4.45;2.75;;;30.40;96.70;;;;;;4969185;28;20090;-82
2022/08/06 08:53:02;;;;;;;3.75;2.55;;;30.40;96.70;;;;;;4967714;28;20125;-81
2022/08/06 08:55:34;;;;;;;3.92;2.90;;;30.40;96.70;;;;;;4971154;28;20520;-80
2022/08/06 08:58:22;;;;;;;3.25;2.47;;;30.50;96.70;;;;;;4985606;28;20477;-88
2022/08/06 09:01:11;;;;;;;4.68;2.28;;;30.70;96.70;;;;;;4977488;28;20501;-85
2022/08/06 09:04:03;;;;;;;4.03;2.53;;;30.80;96.70;;;;;;4983525;28;20042;-84
2022/08/06 09:06:32;;;;;;;3.85;2.22;;;30.80;96.70;;;;;;4979225;28;20145;-84
2022/08/06 09:09:05;;;;;;;3.63;2.33;;;30.90;96.70;;;;;;4962829;28;20591;-83
2022/08/06 09:11:37;;;;;;;3.63;2.45;;;31.00;96.70;;;;;;4971947;28;20046;-86
2022/08/06 09:14:27;;;;;;;4.95;2.70;;;31.00;96.70;;;;;;4986206;28;20047;-88
2022/08/06 09:17:01;;;;;;;4.85;2.72;;;31.10;96.70;;;;;;4986082;28;20046;-88
2022/08/06 09:19:31;;;;;;;5.38;2.97;;;31.10;96.70;;;;;;4971500;28;20035;-88
2022/08/06 09:22:06;;;;;;;4.82;2.58;;;31.30;96.70;;;;;;4987617;28;20050;-87
2022/08/06 09:24:37;;;;;;;3.60;2.25;;;31.30;96.70;;;;;;4961745;28;20080;-81
2022/08/06 09:27:09;;;;;;;3.90;2.53;;;31.50;96.70;;;;;;4980189;28;20057;-84
2022/08/06 09:30:00;;;;;;;4.53;2.58;;;31.50;96.70;;;;;;4961597;28;20073;-81
2022/08/06 09:32:48;;;;;;;3.85;2.60;;;31.60;96.70;;;;;;4981889;28;20607;-83
2022/08/06 09:35:24;;;;;;;6.28;2.40;;;31.70;96.70;;;;;;4966287;28;20054;-84
2022/08/06 09:38:14;;;;;;;4.55;2.50;;;31.90;96.70;;;;;;4966005;28;20074;-83
2022/08/06 09:41:08;;;;;;;3.65;2.63;;;32.00;96.70;;;;;;4963069;28;20050;-81
2022/08/06 09:43:45;;;;;;;5.93;2.65;;;32.00;96.70;;;;;;4980546;28;20051;-85
2022/08/06 09:46:41;;;;;;;4.25;2.28;;;32.10;96.70;;;;;;4985458;28;20061;-83
2022/08/06 09:49:16;;;;;;;3.05;2.38;;;32.10;96.70;;;;;;4979852;28;20412;-82
2022/08/06 09:52:13;;;;;;;2.45;2.25;;;32.20;96.70;;;;;;4970315;28;20063;-82
2022/08/06 09:54:46;;;;;;;2.63;2.40;;;32.20;96.70;;;;;;4966440;28;20047;-81
2022/08/06 09:57:23;;;;;;;4.53;2.38;;;32.30;96.70;;;;;;4978828;28;20044;-82
2022/08/06 10:00:08;;;;;;;3.65;2.30;;;32.40;96.70;;;;;;4978279;28;20556;-82
2022/08/06 10:02:42;;;;;;;3.50;2.63;;;32.60;96.70;;;;;;4983747;28;20130;-82
2022/08/06 10:05:19;;;;;;;4.72;2.40;;;32.70;96.70;;;;;;4979170;28;20050;-80
2022/08/06 10:08:03;;;;;;;2.70;2.10;;;32.80;96.70;;;;;;4968114;28;20058;-81
2022/08/06 10:10:39;;;;;;;4.22;2.15;;;32.80;96.70;;;;;;4967876;28;20098;-80
2022/08/06 10:13:19;;;;;;;8.45;2.58;;;32.90;96.70;;;;;;4963072;28;20042;-79
2022/08/06 10:15:52;;;;;;;3.30;2.42;;;33.00;96.70;;;;;;4982291;28;20072;-79
2022/08/06 10:18:34;;;;;;;4.10;2.40;;;33.20;96.70;;;;;;4968550;28;20061;-84
2022/08/06 10:21:25;;;;;;;3.67;1.70;;;33.40;96.70;;;;;;4962769;28;20580;-80
2022/08/06 10:24:04;;;;;;;3.25;2.22;;;33.40;96.70;;;;;;4962024;28;20043;-81
2022/08/06 10:26:33;;;;;;;3.03;1.92;;;33.60;96.70;;;;;;4982717;28;20062;-83
2022/08/06 10:29:05;;;;;;;5.18;1.80;;;33.70;96.70;;;;;;4967242;28;20659;-83
2022/08/06 10:31:38;;;;;;;2.70;1.83;;;33.70;96.70;;;;;;4982555;28;20051;-81
2022/08/06 10:34:11;;;;;;;4.47;2.10;;;33.90;96.70;;;;;;4966582;28;20053;-80
2022/08/06 10:36:49;;;;;;;3.30;2.00;;;34.10;96.70;;;;;;4965424;28;20143;-83
2022/08/06 10:39:28;;;;;;;3.35;1.80;;;34.30;96.70;;;;;;4981819;28;20050;-83
2022/08/06 10:42:17;;;;;;;2.63;1.88;;;34.30;96.70;;;;;;4960050;28;20047;-83
2022/08/06 10:44:50;;;;;;;2.90;1.65;;;34.50;96.70;;;;;;4983854;28;20481;-83
2022/08/06 10:47:23;;;;;;;4.15;1.60;;;34.60;96.70;;;;;;4968720;28;20051;-84
2022/08/06 10:50:13;;;;;;;2.72;2.08;;;34.80;96.70;;;;;;4967433;28;20049;-85
2022/08/06 10:53:02;;;;;;;4.32;2.10;;;34.90;96.70;;;;;;4971449;28;20101;-85
2022/08/06 10:55:31;;;;;;;3.53;1.70;;;34.90;96.70;;;;;;4991809;28;20070;-85
2022/08/06 10:58:11;;;;;;;2.08;1.90;;;34.90;96.70;;;;;;4990355;28;20059;-85
2022/08/06 11:00:41;;;;;;;7.32;2.35;;;35.10;96.70;;;;;;4985150;28;20062;-89
2022/08/06 11:03:34;;;;;;;3.03;2.10;;;35.20;96.70;;;;;;4985281;28;20046;-90
2022/08/06 11:06:25;;;;;;;4.05;1.90;;;35.20;96.70;;;;;;4979701;28;20054;-90
2022/08/06 11:09:15;;;;;;;3.20;1.70;;;35.30;96.70;;;;;;4981346;28;20078;-85
2022/08/06 11:11:57;;;;;;;2.72;1.80;;;35.40;96.70;;;;;;4962529;28;20070;-79
2022/08/06 11:14:37;;;;;;;1.92;1.73;;;35.50;96.70;;;;;;4981417;28;20401;-79
2022/08/06 11:17:06;;;;;;;2.55;1.73;;;35.70;94.80;;;;;;4973153;28;20146;-79
2022/08/06 11:19:41;;;;;;;1.80;1.70;;;35.80;95.60;;;;;;4967061;28;20038;-78
2022/08/06 11:22:40;;;;;;;2.35;1.90;;;35.80;96.30;;;;;;4960009;28;20049;-78
2022/08/06 11:25:38;;;;;;;2.35;1.80;;;35.90;95.60;;;;;;4964789;28;20528;-79
2022/08/06 11:28:08;;;;;;;1.85;1.75;;;35.80;96.70;;;;;;4970784;28;20058;-77
2022/08/06 11:30:39;;;;;;;3.03;1.95;;;35.80;94.80;;;;;;4979751;28;20058;-79
2022/08/06 11:33:14;;;;;;;2.10;1.70;;;35.90;96.70;;;;;;4981206;28;20066;-79
2022/08/06 11:35:48;;;;;;;3.20;2.00;;;36.10;96.70;;;;;;4980600;28;20046;-77
2022/08/06 11:38:59;;;;;;;3.20;1.75;;;36.10;96.70;;;;;;4981405;28;20046;-77
2022/08/06 11:41:58;;;;;;;1.98;1.80;;;36.30;96.40;;;;;;4965098;28;20122;-78
2022/08/06 11:44:29;;;;;;;2.17;1.90;;;36.20;94.90;;;;;;4964812;28;20690;-80
2022/08/06 11:47:09;;;;;;;4.65;2.10;;;36.10;96.40;;;;;;4980518;28;20626;-77
2022/08/06 11:49:40;;;;;;;5.43;2.00;;;36.20;96.70;;;;;;4983361;28;20054;-78
2022/08/06 11:52:42;;;;;;;3.03;1.88;;;36.20;96.70;;;;;;4966464;28;20050;-77
2022/08/06 11:55:13;;;;;;;4.15;1.95;;;36.30;96.20;;;;;;4959648;28;20141;-78
2022/08/06 11:57:51;;;;;;;1.88;1.40;;;36.40;95.00;;;;;;4983047;28;20147;-78
2022/08/06 12:00:22;;;;;;;2.28;1.77;;;36.40;94.50;;;;;;4981896;28;20069;-77
2022/08/06 12:02:59;;;;;;;2.60;1.73;;;36.40;95.30;;;;;;4986963;28;20499;-85
2022/08/06 12:05:47;;;;;;;5.63;1.85;;;36.50;96.70;;;;;;4970253;28;20046;-89
2022/08/06 12:08:27;;;;;;;3.10;1.98;;;36.40;96.70;;;;;;4970583;28;20080;-92
2022/08/06 12:11:30;;;;;;;5.30;1.90;;;36.50;96.70;;;;;;4984222;28;20427;-86
2022/08/06 12:14:05;;;;;;;3.05;1.95;;;36.60;96.70;;;;;;4987057;28;20077;-89
2022/08/06 12:16:54;;;;;;;2.83;2.00;;;36.80;96.70;;;;;;4985536;28;20062;-85
2022/08/06 12:19:30;;;;;;;6.80;2.75;;;36.60;96.70;;;;;;4987791;28;20531;-84
2022/08/06 12:22:01;;;;;;;2.03;1.80;;;36.70;96.70;;;;;;4975939;28;20054;-88
2022/08/06 12:24:32;;;;;;;3.90;2.05;;;36.80;96.60;;;;;;4991526;28;20137;-87
2022/08/06 12:27:21;;;;;;;2.80;1.80;;;36.90;94.90;;;;;;4991060;28;20046;-86
2022/08/06 12:29:56;;;;;;;2.15;1.48;;;36.60;95.50;;;;;;4990844;28;20062;-90
2022/08/06 12:32:28;;;;;;;2.72;1.70;;;36.60;95.40;;;;;;4990707;28;20046;-86
2022/08/06 12:35:02;;;;;;;2.03;1.67;;;36.50;94.90;;;;;;4991351;28;20121;-88
2022/08/06 12:37:34;;;;;;;2.30;1.63;;;36.60;94.30;;;;;;4989854;28;20054;-84
2022/08/06 12:40:26;;;;;;;4.30;1.98;;;36.70;94.10;;;;;;4984933;28;20050;-85
2022/08/06 12:43:09;;;;;;;3.65;1.45;;;36.70;92.90;;;;;;4990701;28;20054;-85
2022/08/06 12:45:43;;;;;;;2.38;1.30;;;36.80;92.30;;;;;;4992243;28;20113;-88
2022/08/06 12:48:31;;;;;;;1.70;1.60;;;36.80;93.70;;;;;;4991130;28;20043;-91
2022/08/06 12:51:05;;;;;;;2.28;1.70;;;36.80;92.90;;;;;;4991665;28;20046;-88
2022/08/06 12:53:42;;;;;;;4.40;1.80;;;36.80;92.40;;;;;;4976188;28;20077;-87
2022/08/06 12:56:17;;;;;;;3.33;1.52;;;37.00;93.30;;;;;;4990956;28;20046;-89
2022/08/06 12:59:02;;;;;;;2.50;1.42;;;36.90;93.60;;;;;;4975193;28;20046;-86
2022/08/06 13:01:35;;;;;;;2.05;1.70;;;36.90;94.10;;;;;;4969113;28;20058;-81
2022/08/06 13:04:24;;;;;;;3.50;1.65;;;36.90;94.60;;;;;;4984441;28;20133;-81
2022/08/06 13:07:00;;;;;;;8.18;2.55;;;36.50;95.80;;;;;;4986055;28;20058;-80
2022/08/06 13:09:30;;;;;;;2.00;1.63;;;36.50;95.70;;;;;;4990494;28;20046;-81
2022/08/06 13:12:17;;;;;;;7.68;2.10;;;36.60;95.00;;;;;;4985627;28;20057;-81
2022/08/06 13:15:12;;;;;;;2.65;2.00;;;36.60;94.90;;;;;;4987935;28;20043;-82
2022/08/06 13:18:04;;;;;;;2.67;1.55;;;36.80;94.90;;;;;;4990475;28;20050;-88
2022/08/06 13:20:53;;;;;;;3.95;1.40;;;36.90;92.90;;;;;;4997894;28;20046;-86
2022/08/06 13:23:31;;;;;;;3.42;1.30;;;37.00;93.40;;;;;;4985419;28;20050;-86
2022/08/06 13:26:13;;;;;;;3.58;1.60;;;36.90;92.60;;;;;;4989767;28;20050;-83
2022/08/06 13:29:22;;;;;;;2.70;1.40;;;37.00;92.10;;;;;;4989858;28;20061;-87
2022/08/06 13:32:11;;;;;;;3.03;1.20;;;37.10;90.80;;;;;;4982972;28;21232;-82
2022/08/06 13:35:01;;;;;;;5.95;1.60;;;37.30;90.40;;;;;;4985299;28;20059;-87
2022/08/06 13:37:46;;;;;;;5.75;1.77;;;37.40;93.60;;;;;;4990538;28;20137;-85
2022/08/06 13:40:38;;;;;;;2.72;1.60;;;37.40;93.00;;;;;;4984648;28;20057;-85
2022/08/06 13:43:13;;;;;;;4.43;1.83;;;37.60;92.50;;;;;;4990329;28;20046;-78
2022/08/06 13:46:08;;;;;;;3.30;1.70;;;37.80;94.20;;;;;;4975228;28;20492;-86
2022/08/06 13:48:42;;;;;;;3.55;1.45;;;37.50;94.40;;;;;;4985782;28;20047;-81
2022/08/06 13:51:14;;;;;;;2.25;1.50;;;37.50;94.10;;;;;;4987523;28;20070;-78
2022/08/06 13:53:51;;;;;;;2.60;1.40;;;37.60;95.00;;;;;;4986000;28;20129;-81
2022/08/06 13:56:25;;;;;;;3.67;1.58;;;37.80;94.60;;;;;;4986265;28;20053;-76